Time;durP1;ratioP1;P1;durP2;ratioP2;P2;SDS_P1;SDS_P2;PMS_P1;PMS_P2;Temp;Humidity;BMP_temperature;BMP_pressure;BME280_temperature;BME280_humidity;BME280_pressure;Samples;Min_cycle;Max_cycle;Signal;HPM_P1;HPM_P2
2023/10/12 00:02:21;;;;;;;12.07;2.47;;;14.40;99.90;;;;;;5066905;28;20051;-66
2023/10/12 00:04:53;;;;;;;10.82;2.65;;;14.50;99.90;;;;;;5068735;28;20287;-66
2023/10/12 00:07:36;;;;;;;9.32;2.00;;;14.40;99.90;;;;;;5085939;28;20040;-66
2023/10/12 00:10:24;;;;;;;7.47;1.80;;;14.40;99.90;;;;;;5063569;28;20052;-66
2023/10/12 00:12:53;;;;;;;12.88;1.88;;;14.40;99.90;;;;;;5064980;28;20056;-66
2023/10/12 00:17:58;;;;;;;12.27;2.20;;;14.40;99.90;;;;;;5065074;28;20056;-66
2023/10/12 00:23:09;;;;;;;12.93;1.83;;;14.30;99.90;;;;;;5066431;28;20484;-66
2023/10/12 00:25:45;;;;;;;9.93;1.92;;;14.30;99.90;;;;;;5099535;27;20040;-66
2023/10/12 00:28:17;;;;;;;11.20;2.00;;;14.30;99.90;;;;;;5066507;28;20095;-66
2023/10/12 00:30:43;;;;;;;;;;;14.30;99.90;;;;;;5047486;28;20113;-67
2023/10/12 00:33:09;;;;;;;13.57;2.08;;;14.30;99.90;;;;;;5062691;28;20019;-67
2023/10/12 00:35:38;;;;;;;8.77;1.75;;;14.30;99.90;;;;;;5069504;28;20044;-66
2023/10/12 00:38:16;;;;;;;11.90;1.77;;;14.20;99.90;;;;;;5049306;28;20386;-67
2023/10/12 00:40:49;;;;;;;12.63;2.20;;;14.20;99.90;;;;;;5074582;28;20052;-66
2023/10/12 00:43:15;;;;;;;13.55;2.03;;;14.20;99.90;;;;;;5067982;28;20044;-65
2023/10/12 00:45:41;;;;;;;8.35;1.75;;;14.20;99.90;;;;;;5073045;28;20523;-66
2023/10/12 00:48:07;;;;;;;8.93;1.88;;;14.20;99.90;;;;;;5065351;28;20044;-66
2023/10/12 00:50:36;;;;;;;8.40;1.60;;;14.20;99.90;;;;;;5065479;28;20051;-66
2023/10/12 00:53:22;;;;;;;16.92;2.42;;;14.20;99.90;;;;;;5071310;28;20691;-66
2023/10/12 00:55:48;;;;;;;8.77;1.77;;;14.20;99.90;;;;;;5072169;28;20157;-66
2023/10/12 00:58:15;;;;;;;9.50;1.88;;;14.20;99.90;;;;;;5063966;28;20048;-66
2023/10/12 01:01:00;;;;;;;8.82;1.92;;;14.20;99.90;;;;;;5069976;28;20540;-66
2023/10/12 01:03:35;;;;;;;12.13;2.20;;;14.20;99.90;;;;;;5065924;28;20051;-66
2023/10/12 01:08:43;;;;;;;13.80;2.40;;;14.10;99.90;;;;;;5076328;28;20120;-66
2023/10/12 01:11:20;;;;;;;13.50;2.55;;;14.10;99.90;;;;;;5063883;28;20049;-65
2023/10/12 01:14:04;;;;;;;7.32;1.63;;;14.10;99.90;;;;;;5064865;28;20056;-65
2023/10/12 01:16:54;;;;;;;7.53;1.65;;;14.10;99.90;;;;;;5079479;28;20076;-66
2023/10/12 01:19:23;;;;;;;9.25;1.85;;;14.10;99.90;;;;;;5063501;28;20048;-65
2023/10/12 01:21:50;;;;;;;10.98;1.90;;;14.10;99.90;;;;;;5070069;28;20576;-65
2023/10/12 01:24:16;;;;;;;8.50;1.48;;;14.10;99.90;;;;;;5077248;28;20408;-65
2023/10/12 01:26:50;;;;;;;10.82;1.92;;;14.00;99.90;;;;;;5070150;28;20052;-65
2023/10/12 01:29:22;;;;;;;12.32;2.10;;;14.00;99.90;;;;;;5100250;27;20686;-65
2023/10/12 01:32:38;;;;;;;12.43;2.05;;;14.00;99.90;;;;;;5078640;28;20040;-65
2023/10/12 01:34:44;;;;;;;10.93;2.33;;;14.00;99.90;;;;;;5069866;28;21792;-66
2023/10/12 01:37:22;;;;;;;11.05;2.17;;;14.00;99.90;;;;;;5099124;27;20099;-65
2023/10/12 01:45:41;;;;;;;11.80;2.17;;;14.00;99.90;;;;;;5074701;28;20572;-65
2023/10/12 01:48:22;;;;;;;12.55;2.00;;;14.00;99.90;;;;;;5068712;28;20817;-66
2023/10/12 01:50:49;;;;;;;15.35;1.85;;;13.90;99.90;;;;;;5080347;28;20052;-66
2023/10/12 01:55:53;;;;;;;12.35;1.92;;;13.90;99.90;;;;;;5071140;28;20056;-65
2023/10/12 01:58:21;;;;;;;9.85;2.33;;;13.90;99.90;;;;;;5069595;28;20573;-65
2023/10/12 02:00:53;;;;;;;9.85;2.30;;;13.90;99.90;;;;;;5054979;28;20123;-65
2023/10/12 02:03:31;;;;;;;10.60;2.03;;;13.80;99.90;;;;;;5086801;28;20443;-65
2023/10/12 02:06:02;;;;;;;13.48;1.98;;;13.90;99.90;;;;;;5066482;28;20070;-65
2023/10/12 02:08:39;;;;;;;8.05;1.95;;;13.80;99.90;;;;;;5067602;28;20080;-65
2023/10/12 02:11:08;;;;;;;16.23;2.60;;;13.80;99.90;;;;;;5067520;28;20043;-66
2023/10/12 02:13:34;;;;;;;13.20;2.05;;;13.80;99.90;;;;;;5096097;28;20041;-65
2023/10/12 02:16:02;;;;;;;10.75;2.05;;;13.70;99.90;;;;;;5055886;28;20054;-65
2023/10/12 02:18:30;;;;;;;13.27;2.72;;;13.70;99.90;;;;;;5102906;27;20067;-65
2023/10/12 02:21:08;;;;;;;10.80;1.70;;;13.70;99.90;;;;;;5066546;28;20052;-66
2023/10/12 02:23:38;;;;;;;9.88;2.15;;;13.70;99.90;;;;;;5084309;28;20052;-65
2023/10/12 02:26:28;;;;;;;8.05;1.80;;;13.70;99.90;;;;;;5098853;27;20783;-65
2023/10/12 02:28:54;;;;;;;11.82;1.75;;;13.70;99.90;;;;;;5069442;28;20060;-65
2023/10/12 02:31:28;;;;;;;10.95;1.75;;;13.80;99.90;;;;;;5067836;28;20036;-65
2023/10/12 02:33:55;;;;;;;12.13;1.77;;;13.60;99.90;;;;;;5103639;27;20044;-65
2023/10/12 02:36:21;;;;;;;13.70;2.42;;;13.60;99.90;;;;;;5075484;28;20055;-65
2023/10/12 02:38:47;;;;;;;10.20;1.85;;;13.60;99.90;;;;;;5053704;28;20048;-70
2023/10/12 02:41:13;;;;;;;10.15;1.90;;;13.60;99.90;;;;;;5069169;28;20083;-70
2023/10/12 02:43:50;;;;;;;8.82;1.55;;;13.60;99.90;;;;;;5061977;28;20399;-70
2023/10/12 02:46:23;;;;;;;8.95;1.88;;;13.50;99.90;;;;;;5070642;28;20049;-70
2023/10/12 02:48:51;;;;;;;12.05;2.38;;;13.50;99.90;;;;;;5069601;28;20052;-70
2023/10/12 02:51:22;;;;;;;14.52;1.88;;;13.50;99.90;;;;;;5076232;28;20048;-70
2023/10/12 02:53:50;;;;;;;17.08;2.40;;;13.50;99.90;;;;;;5079538;28;20538;-69
2023/10/12 02:56:22;;;;;;;10.00;1.77;;;13.50;99.90;;;;;;5101555;27;20143;-69
2023/10/12 02:58:48;;;;;;;12.68;2.38;;;13.40;99.90;;;;;;5075365;28;20516;-70
2023/10/12 03:01:19;;;;;;;9.48;1.98;;;13.40;99.90;;;;;;5076243;28;20048;-69
2023/10/12 03:03:48;;;;;;;6.68;1.55;;;13.40;99.90;;;;;;5071812;28;20152;-70
2023/10/12 03:06:31;;;;;;;6.15;1.40;;;13.40;99.90;;;;;;5066823;28;20040;-69
2023/10/12 03:11:26;;;;;;;7.05;1.75;;;13.30;99.90;;;;;;5078369;28;20040;-69
2023/10/12 03:16:41;;;;;;;13.23;1.95;;;13.20;99.90;;;;;;5079898;28;20047;-69
2023/10/12 03:21:52;;;;;;;6.97;1.58;;;13.30;99.90;;;;;;5082072;28;20087;-70
2023/10/12 03:24:21;;;;;;;12.57;1.65;;;13.30;99.90;;;;;;5099317;27;20443;-72
2023/10/12 03:27:23;;;;;;;10.43;1.88;;;13.20;99.90;;;;;;5075673;28;20047;-68
2023/10/12 03:29:55;;;;;;;8.02;1.75;;;13.20;99.90;;;;;;5065928;28;20057;-69
2023/10/12 03:32:23;;;;;;;9.48;1.70;;;13.20;99.90;;;;;;5069926;28;20056;-70
2023/10/12 03:37:18;;;;;;;11.82;1.83;;;13.20;99.90;;;;;;5071416;28;20048;-70
2023/10/12 03:53:26;;;;;;;8.43;2.10;;;13.10;99.90;;;;;;5065643;28;20059;-69
2023/10/12 03:55:58;;;;;;;14.30;2.05;;;13.10;99.90;;;;;;5066180;28;20615;-69
2023/10/12 03:58:24;;;;;;;;;;;13.10;99.90;;;;;;5077963;28;20592;-70
2023/10/12 04:01:07;;;;;;;7.38;1.90;;;13.00;99.90;;;;;;5075268;28;20332;-69
2023/10/12 04:03:37;;;;;;;10.13;2.65;;;13.10;99.90;;;;;;5074890;28;20049;-70
2023/10/12 04:06:23;;;;;;;8.00;1.83;;;13.00;99.90;;;;;;5074674;28;20064;-70
2023/10/12 04:08:53;;;;;;;9.95;1.58;;;13.00;99.90;;;;;;5068064;28;21859;-69
2023/10/12 04:11:32;;;;;;;14.15;2.05;;;13.00;99.90;;;;;;5098455;27;20105;-70
2023/10/12 04:14:17;;;;;;;12.30;2.53;;;12.90;99.90;;;;;;5065829;28;20409;-69
2023/10/12 04:16:45;;;;;;;10.05;1.98;;;12.90;99.90;;;;;;5101336;27;20052;-69
2023/10/12 04:19:16;;;;;;;11.63;2.00;;;12.90;99.90;;;;;;5068088;28;20040;-69
2023/10/12 04:24:43;;;;;;;10.02;2.05;;;12.90;99.90;;;;;;5047563;28;20135;-70
2023/10/12 04:27:38;;;;;;;11.13;1.92;;;12.80;99.90;;;;;;5070648;28;20098;-69
2023/10/12 04:32:57;;;;;;;8.20;2.05;;;12.80;99.90;;;;;;5043385;28;20040;-69
2023/10/12 04:43:39;;;;;;;10.23;2.05;;;12.70;99.90;;;;;;5068900;28;20048;-69
2023/10/12 04:48:43;;;;;;;11.60;2.40;;;12.70;99.90;;;;;;5072474;28;20059;-70
2023/10/12 04:51:19;;;;;;;8.63;2.05;;;12.70;99.90;;;;;;5096504;28;20132;-69
2023/10/12 04:53:57;;;;;;;6.40;1.70;;;12.70;99.90;;;;;;5061766;28;20091;-69
2023/10/12 04:56:26;;;;;;;8.07;1.92;;;12.60;99.90;;;;;;5044254;28;20048;-69
2023/10/12 04:58:59;;;;;;;9.63;2.08;;;12.60;99.90;;;;;;5067628;28;20986;-69
2023/10/12 05:01:29;;;;;;;9.18;1.70;;;12.60;99.90;;;;;;5064222;28;20127;-69
2023/10/12 05:04:34;;;;;;;9.50;1.73;;;12.60;99.90;;;;;;5074224;28;20047;-69
2023/10/12 05:07:27;;;;;;;9.35;1.60;;;12.60;99.90;;;;;;5059782;28;20036;-69
2023/10/12 05:09:51;;;;;;;8.70;1.92;;;12.60;99.90;;;;;;5088710;27;21456;-69
2023/10/12 05:12:24;;;;;;;13.25;2.20;;;12.50;99.90;;;;;;5057719;28;20327;-70
2023/10/12 05:14:55;;;;;;;10.15;1.63;;;12.50;99.90;;;;;;5042222;28;20069;-69
2023/10/12 05:17:24;;;;;;;12.05;1.60;;;12.50;99.90;;;;;;5067302;28;20047;-70
2023/10/12 05:19:53;;;;;;;10.65;1.50;;;12.50;99.90;;;;;;5089139;28;20365;-69
2023/10/12 05:22:22;;;;;;;11.68;1.70;;;12.40;99.90;;;;;;5065258;28;20182;-69
2023/10/12 05:24:48;;;;;;;13.15;2.13;;;12.40;99.90;;;;;;5065977;28;20428;-70
2023/10/12 05:27:23;;;;;;;9.68;2.10;;;12.50;99.90;;;;;;5062361;28;20048;-70
2023/10/12 05:29:52;;;;;;;5.85;1.70;;;12.40;99.90;;;;;;5069195;28;20033;-70
2023/10/12 05:32:36;;;;;;;11.40;1.90;;;12.40;99.90;;;;;;5053838;28;20501;-69
2023/10/12 05:35:05;;;;;;;7.75;1.65;;;12.40;99.90;;;;;;5071457;28;20123;-70
2023/10/12 05:37:48;;;;;;;7.30;1.40;;;12.30;99.90;;;;;;5070597;28;20070;-65
2023/10/12 05:40:16;;;;;;;12.35;1.67;;;12.30;99.90;;;;;;5098599;28;20048;-65
2023/10/12 05:42:45;;;;;;;10.93;1.85;;;12.30;99.90;;;;;;5052930;28;20052;-65
2023/10/12 05:45:27;;;;;;;11.02;1.92;;;12.30;99.90;;;;;;5065912;28;20054;-65
2023/10/12 05:47:53;;;;;;;11.48;2.55;;;12.20;99.90;;;;;;5076154;28;20666;-65
2023/10/12 05:50:25;;;;;;;11.73;1.95;;;12.20;99.90;;;;;;5064231;28;20047;-65
2023/10/12 05:53:00;;;;;;;11.75;1.23;;;12.20;99.90;;;;;;5062273;28;20145;-65
2023/10/12 05:55:27;;;;;;;9.50;1.40;;;12.10;99.90;;;;;;5081975;28;20800;-65
2023/10/12 05:57:55;;;;;;;10.52;1.40;;;12.10;99.90;;;;;;5091957;28;20098;-65
2023/10/12 06:00:36;;;;;;;8.20;1.50;;;12.10;99.90;;;;;;5056835;28;20522;-65
2023/10/12 06:03:05;;;;;;;5.93;1.38;;;12.10;99.90;;;;;;5064718;28;20047;-65
2023/10/12 06:05:34;;;;;;;7.40;1.30;;;12.00;99.90;;;;;;5068899;28;20044;-65
2023/10/12 06:08:06;;;;;;;10.00;1.33;;;12.00;99.90;;;;;;5060342;28;20446;-65
2023/10/12 06:10:40;;;;;;;10.85;1.58;;;12.00;99.90;;;;;;5053770;28;20052;-65
2023/10/12 06:13:09;;;;;;;5.80;1.05;;;11.90;99.90;;;;;;5072967;28;20048;-65
2023/10/12 06:15:40;;;;;;;10.18;1.65;;;11.80;99.90;;;;;;5103321;27;20055;-65
2023/10/12 06:18:10;;;;;;;8.50;1.60;;;11.80;99.90;;;;;;5074858;28;20044;-65
2023/10/12 06:20:46;;;;;;;5.20;1.17;;;11.80;99.90;;;;;;5068438;28;20052;-64
2023/10/12 06:23:15;;;;;;;8.32;1.60;;;11.80;99.90;;;;;;5070030;28;20643;-64
2023/10/12 06:25:43;;;;;;;5.80;1.27;;;11.70;99.90;;;;;;5066640;28;20036;-64
2023/10/12 06:28:17;;;;;;;6.25;1.25;;;11.70;99.90;;;;;;5074595;28;20044;-64
2023/10/12 06:30:47;;;;;;;6.55;1.35;;;11.80;99.90;;;;;;5056034;28;20569;-64
2023/10/12 06:33:17;;;;;;;10.88;1.40;;;11.70;99.90;;;;;;5071049;28;20051;-64
2023/10/12 06:36:00;;;;;;;7.70;1.23;;;11.70;99.90;;;;;;5080780;28;20123;-65
2023/10/12 06:38:37;;;;;;;5.70;1.27;;;11.90;99.90;;;;;;5095321;27;20048;-65
2023/10/12 06:46:45;;;;;;;7.43;1.20;;;11.60;99.90;;;;;;5074370;28;20098;-64
2023/10/12 06:49:16;;;;;;;5.63;1.27;;;11.60;99.90;;;;;;5097971;27;20043;-65
2023/10/12 06:51:43;;;;;;;7.88;1.30;;;11.60;99.90;;;;;;5064452;28;20087;-64
2023/10/12 06:54:19;;;;;;;4.63;1.10;;;11.60;99.90;;;;;;5066875;28;20053;-64
2023/10/12 06:56:50;;;;;;;5.43;1.30;;;11.60;99.90;;;;;;5068586;28;20044;-65
2023/10/12 07:04:30;;;;;;;;;;;11.60;99.90;;;;;;5074554;28;20044;-65
2023/10/12 07:07:07;;;;;;;8.20;1.60;;;11.60;99.90;;;;;;5069698;28;19985;-64
2023/10/12 07:09:40;;;;;;;7.78;1.50;;;11.60;99.90;;;;;;5074189;28;20086;-65
2023/10/12 07:12:14;;;;;;;11.52;1.90;;;11.90;99.90;;;;;;5073410;28;20130;-65
2023/10/12 07:14:47;;;;;;;8.80;1.50;;;11.70;99.90;;;;;;5076618;28;20409;-66
2023/10/12 07:17:17;;;;;;;8.45;1.70;;;11.80;99.90;;;;;;5072178;28;20829;-65
2023/10/12 07:19:53;;;;;;;13.13;1.80;;;11.80;99.90;;;;;;5069474;28;20060;-65
2023/10/12 07:22:19;;;;;;;8.80;1.58;;;11.80;99.90;;;;;;5060140;28;20051;-65
2023/10/12 07:24:46;;;;;;;10.32;2.28;;;11.90;99.90;;;;;;5065046;28;20040;-65
2023/10/12 07:27:15;;;;;;;10.60;1.90;;;12.00;99.90;;;;;;5072318;28;20040;-66
2023/10/12 07:29:44;;;;;;;8.50;1.70;;;12.00;99.90;;;;;;5076316;28;20060;-65
2023/10/12 07:34:57;;;;;;;10.07;1.90;;;12.20;99.90;;;;;;5074108;28;20440;-65
2023/10/12 07:37:22;;;;;;;10.77;1.85;;;12.20;99.90;;;;;;5073070;28;20071;-66
2023/10/12 07:39:50;;;;;;;10.50;1.80;;;12.30;99.90;;;;;;5069891;28;20040;-65
2023/10/12 07:42:25;;;;;;;12.73;1.98;;;12.30;99.90;;;;;;5071528;28;20124;-65
2023/10/12 07:44:54;;;;;;;8.38;1.80;;;12.40;99.90;;;;;;5082228;28;20048;-65
2023/10/12 07:47:40;;;;;;;12.23;1.70;;;12.50;99.90;;;;;;5077695;28;20564;-66
2023/10/12 07:50:09;;;;;;;9.98;1.65;;;12.50;99.90;;;;;;5072188;28;20579;-65
2023/10/12 07:55:12;;;;;;;12.80;1.75;;;12.70;99.90;;;;;;5073776;28;20064;-65
2023/10/12 07:57:38;;;;;;;12.80;2.25;;;12.70;99.90;;;;;;5107567;27;20063;-65
2023/10/12 08:07:59;;;;;;;8.02;1.60;;;12.80;99.90;;;;;;5072794;28;20051;-65
2023/10/12 08:10:56;;;;;;;12.55;1.42;;;12.90;99.90;;;;;;5072089;28;20052;-65
2023/10/12 08:19:09;;;;;;;11.15;2.22;;;12.90;99.90;;;;;;5105012;27;20048;-65
2023/10/12 08:21:38;;;;;;;9.95;1.75;;;12.90;99.90;;;;;;5069209;28;20051;-65
2023/10/12 08:32:03;;;;;;;11.07;1.80;;;13.00;99.90;;;;;;5071869;28;20051;-65
2023/10/12 08:39:49;;;;;;;13.32;1.42;;;13.00;99.90;;;;;;5066002;28;20721;-65
2023/10/12 08:44:51;;;;;;;12.05;1.77;;;13.10;99.90;;;;;;5108867;27;20420;-65
2023/10/12 08:49:53;;;;;;;10.30;2.17;;;13.30;99.90;;;;;;5069862;28;20108;-65
2023/10/12 08:52:30;;;;;;;9.52;1.67;;;13.10;99.90;;;;;;5068859;28;20040;-65
2023/10/12 08:55:26;;;;;;;12.15;1.60;;;13.10;99.90;;;;;;5069180;28;20508;-65
2023/10/12 08:58:01;;;;;;;14.45;1.92;;;13.10;99.90;;;;;;5067238;28;20724;-65
2023/10/12 09:05:51;;;;;;;8.75;1.40;;;13.20;99.90;;;;;;5068522;28;20114;-65
2023/10/12 09:11:02;;;;;;;7.28;1.40;;;13.30;99.90;;;;;;5069956;28;20052;-65
2023/10/12 09:13:33;;;;;;;8.32;1.63;;;13.30;99.90;;;;;;5065654;28;20057;-65
2023/10/12 09:16:11;;;;;;;8.90;1.40;;;13.30;99.90;;;;;;5051426;28;20044;-65
2023/10/12 09:18:46;;;;;;;15.07;1.70;;;13.40;99.90;;;;;;5063862;28;20067;-65
2023/10/12 09:32:12;;;;;;;11.25;2.05;;;13.60;99.90;;;;;;5075161;28;20618;-65
2023/10/12 09:36:56;;;;;;;11.00;2.05;;;13.60;99.90;;;;;;5104756;28;20647;-66
2023/10/12 09:39:27;;;;;;;11.38;1.80;;;13.60;99.90;;;;;;5066108;28;20123;-66
2023/10/12 09:41:59;;;;;;;14.65;2.42;;;13.70;99.90;;;;;;5074691;28;20068;-66
2023/10/12 09:44:27;;;;;;;9.18;1.60;;;13.60;99.90;;;;;;5071765;28;20056;-66
2023/10/12 09:46:57;;;;;;;11.98;1.77;;;13.60;99.90;;;;;;5060975;28;20063;-66
2023/10/12 09:49:30;;;;;;;8.68;1.35;;;13.70;99.90;;;;;;5074945;28;20117;-66
2023/10/12 09:52:01;;;;;;;13.10;1.83;;;13.70;99.90;;;;;;5068332;28;20095;-66
2023/10/12 09:54:56;;;;;;;12.18;1.45;;;13.70;99.90;;;;;;5066094;28;20673;-65
2023/10/12 09:57:25;;;;;;;12.85;2.00;;;13.80;99.90;;;;;;5051029;28;21108;-66
2023/10/12 09:59:59;;;;;;;7.45;1.38;;;13.80;99.90;;;;;;5066585;28;20060;-65
2023/10/12 10:02:29;;;;;;;12.38;1.40;;;13.90;99.90;;;;;;5080781;28;20120;-66
2023/10/12 10:08:00;;;;;;;11.55;1.60;;;13.90;99.90;;;;;;5073604;28;20056;-66
2023/10/12 10:10:34;;;;;;;14.15;2.35;;;13.90;99.90;;;;;;5073883;28;20052;-66
2023/10/12 10:13:10;;;;;;;12.77;1.80;;;13.90;99.90;;;;;;5067330;28;20167;-66
2023/10/12 10:15:55;;;;;;;11.73;2.30;;;13.90;99.90;;;;;;5070183;28;20785;-66
2023/10/12 10:18:28;;;;;;;9.00;1.52;;;13.90;99.90;;;;;;5043017;28;20055;-67
2023/10/12 10:20:57;;;;;;;12.40;1.75;;;13.90;99.90;;;;;;5083240;28;20098;-67
2023/10/12 10:23:25;;;;;;;10.23;1.65;;;14.00;99.90;;;;;;5078088;28;20388;-66
2023/10/12 10:25:56;;;;;;;9.45;1.50;;;14.00;99.90;;;;;;5077192;28;20050;-66
2023/10/12 10:28:32;;;;;;;13.23;1.67;;;14.00;99.90;;;;;;5088097;27;20056;-65
2023/10/12 10:31:03;;;;;;;9.75;1.98;;;14.10;99.90;;;;;;5036714;28;20461;-65
2023/10/12 10:33:29;;;;;;;;;;;14.10;99.90;;;;;;5055138;28;20040;-66
2023/10/12 10:36:13;;;;;;;13.05;1.65;;;14.10;99.90;;;;;;5099049;27;20008;-65
2023/10/12 10:39:03;;;;;;;11.52;1.70;;;14.10;99.90;;;;;;5050226;28;20680;-65
2023/10/12 10:44:11;;;;;;;7.18;1.60;;;14.10;99.90;;;;;;5054612;28;20059;-65
2023/10/12 10:46:43;;;;;;;9.60;1.50;;;14.00;99.90;;;;;;5033842;28;20044;-66
2023/10/12 10:49:15;;;;;;;9.70;1.65;;;14.10;99.90;;;;;;5056646;28;20965;-65
2023/10/12 10:51:48;;;;;;;9.68;1.40;;;14.10;99.90;;;;;;5057791;28;20386;-65
2023/10/12 10:54:20;;;;;;;12.88;1.50;;;14.10;99.90;;;;;;5055041;28;20134;-66
2023/10/12 10:56:51;;;;;;;10.32;2.00;;;14.20;99.90;;;;;;5057002;28;20129;-66
2023/10/12 10:59:19;;;;;;;13.55;1.95;;;14.20;99.90;;;;;;5049238;28;20680;-65
2023/10/12 11:01:49;;;;;;;9.57;2.03;;;14.20;99.90;;;;;;5058035;28;20052;-65
2023/10/12 11:07:06;;;;;;;16.92;1.90;;;14.30;99.90;;;;;;5057465;28;20055;-66
2023/10/12 11:12:22;;;;;;;12.68;1.63;;;14.30;99.90;;;;;;5055343;28;20923;-65
2023/10/12 11:14:58;;;;;;;15.90;1.63;;;14.40;99.90;;;;;;5036490;28;20735;-65
2023/10/12 11:17:27;;;;;;;15.57;1.92;;;14.40;99.90;;;;;;5071442;27;20048;-65
2023/10/12 11:19:52;;;;;;;7.80;1.42;;;14.40;99.90;;;;;;5056668;28;20086;-65
2023/10/12 11:22:19;;;;;;;10.80;1.98;;;14.50;99.90;;;;;;5056847;28;20044;-65
2023/10/12 11:24:45;;;;;;;13.60;1.60;;;14.40;99.90;;;;;;5055962;28;20046;-65
2023/10/12 11:27:12;;;;;;;11.05;1.42;;;14.50;99.90;;;;;;5048241;28;20119;-65
2023/10/12 11:29:50;;;;;;;9.93;1.65;;;14.50;99.90;;;;;;5046839;28;20132;-66
2023/10/12 11:32:16;;;;;;;7.10;1.20;;;14.40;99.90;;;;;;5092928;27;20059;-65
2023/10/12 11:34:52;;;;;;;14.88;1.80;;;14.50;99.90;;;;;;5049999;28;20715;-66
2023/10/12 11:37:19;;;;;;;13.93;2.20;;;14.50;99.90;;;;;;5060942;28;20162;-70
2023/10/12 11:39:46;;;;;;;8.25;1.77;;;14.50;99.90;;;;;;5066072;28;20134;-70
2023/10/12 11:42:13;;;;;;;10.48;1.70;;;14.50;99.90;;;;;;5062733;28;20591;-71
2023/10/12 11:44:47;;;;;;;11.00;1.65;;;14.50;99.90;;;;;;5048222;28;20044;-72
2023/10/12 11:47:23;;;;;;;13.50;2.00;;;14.60;99.90;;;;;;5062737;28;20055;-71
2023/10/12 11:49:55;;;;;;;11.15;1.45;;;14.60;99.90;;;;;;5046792;28;20098;-70
2023/10/12 11:52:32;;;;;;;11.32;1.70;;;14.60;99.90;;;;;;5063696;28;20561;-72
2023/10/12 11:55:19;;;;;;;13.07;1.90;;;14.60;99.90;;;;;;5092115;27;20607;-70
2023/10/12 11:57:53;;;;;;;12.50;1.55;;;14.60;99.90;;;;;;5055314;28;20123;-71
2023/10/12 12:00:29;;;;;;;13.45;2.15;;;14.70;99.90;;;;;;5060572;28;20048;-72
2023/10/12 12:02:59;;;;;;;10.25;1.55;;;14.70;99.90;;;;;;5058607;28;20048;-70
2023/10/12 12:05:33;;;;;;;10.52;1.75;;;14.70;99.90;;;;;;5052591;28;20050;-69
2023/10/12 12:08:06;;;;;;;15.63;1.80;;;14.70;99.90;;;;;;5061557;28;20602;-70
2023/10/12 12:10:39;;;;;;;11.80;1.42;;;14.70;99.90;;;;;;5060266;28;20198;-69
2023/10/12 12:13:08;;;;;;;9.32;1.48;;;14.70;99.90;;;;;;5053161;28;20088;-70
2023/10/12 12:15:35;;;;;;;9.65;1.48;;;14.70;99.90;;;;;;5088433;27;21093;-71
2023/10/12 12:18:04;;;;;;;8.20;1.27;;;14.70;99.90;;;;;;5040485;28;20150;-70
2023/10/12 12:20:38;;;;;;;13.77;2.28;;;14.70;99.90;;;;;;5056989;28;20055;-65
2023/10/12 12:23:05;;;;;;;15.13;2.33;;;14.70;99.90;;;;;;5058639;28;20040;-66
2023/10/12 12:25:37;;;;;;;8.70;1.73;;;14.70;99.90;;;;;;5056432;28;20087;-67
2023/10/12 12:28:04;;;;;;;8.80;1.67;;;14.70;99.90;;;;;;5048548;28;20674;-66
2023/10/12 12:30:34;;;;;;;12.63;1.50;;;14.80;99.90;;;;;;5059285;28;20040;-66
2023/10/12 12:33:08;;;;;;;7.78;1.20;;;14.80;99.90;;;;;;5060976;28;20052;-66
2023/10/12 12:35:36;;;;;;;8.65;1.20;;;14.80;99.90;;;;;;5056731;28;20552;-67
2023/10/12 12:38:06;;;;;;;12.35;1.58;;;14.70;99.90;;;;;;5093890;27;20179;-66
2023/10/12 12:40:38;;;;;;;14.70;1.70;;;14.70;99.90;;;;;;5061764;28;20051;-66
2023/10/12 12:43:07;;;;;;;9.48;1.58;;;14.80;99.90;;;;;;5066058;28;20052;-66
2023/10/12 12:45:35;;;;;;;8.75;1.60;;;14.90;99.90;;;;;;5067873;28;20052;-65
2023/10/12 12:48:04;;;;;;;14.00;2.38;;;14.80;99.90;;;;;;5078781;28;20052;-67
2023/10/12 12:50:30;;;;;;;10.57;1.55;;;14.80;99.90;;;;;;5067495;28;20044;-66
2023/10/12 12:52:57;;;;;;;11.02;1.60;;;14.80;99.90;;;;;;5065955;28;21731;-66
2023/10/12 12:55:27;;;;;;;8.77;1.60;;;14.80;99.90;;;;;;5065965;28;20048;-66
2023/10/12 12:57:56;;;;;;;10.37;1.40;;;14.80;99.90;;;;;;5061807;28;20048;-66
2023/10/12 13:00:22;;;;;;;10.82;1.42;;;14.80;99.90;;;;;;5053924;28;20060;-67
2023/10/12 13:02:48;;;;;;;11.48;2.00;;;14.80;99.90;;;;;;5098954;27;20051;-66
2023/10/12 13:05:15;;;;;;;10.68;1.58;;;14.80;99.90;;;;;;5061479;28;20155;-66
2023/10/12 13:07:41;;;;;;;14.00;1.75;;;14.80;99.90;;;;;;5093658;27;20049;-66
2023/10/12 13:10:11;;;;;;;8.70;1.80;;;14.80;99.90;;;;;;5061581;28;20512;-70
2023/10/12 13:12:40;;;;;;;12.65;1.75;;;14.80;99.90;;;;;;5095192;27;20032;-70
2023/10/12 13:15:09;;;;;;;11.10;1.92;;;14.80;99.90;;;;;;5064965;28;20127;-72
2023/10/12 13:17:37;;;;;;;6.43;1.40;;;14.80;99.90;;;;;;5067062;28;20052;-69
2023/10/12 13:20:03;;;;;;;10.82;1.90;;;14.80;99.90;;;;;;5066423;28;20039;-70
2023/10/12 13:22:28;;;;;;;14.82;1.80;;;14.80;99.90;;;;;;5066692;28;20056;-70
2023/10/12 13:24:56;;;;;;;15.55;2.40;;;14.80;99.90;;;;;;5064976;28;20495;-70
2023/10/12 13:27:32;;;;;;;11.20;1.63;;;14.80;99.90;;;;;;5071866;28;20184;-71
2023/10/12 13:30:09;;;;;;;8.10;1.63;;;14.80;99.90;;;;;;5061360;28;20056;-70
2023/10/12 13:32:36;;;;;;;9.30;2.03;;;14.80;99.90;;;;;;5067417;28;20049;-71
2023/10/12 13:35:17;;;;;;;8.32;1.50;;;14.80;99.90;;;;;;5063561;28;20528;-72
2023/10/12 13:37:47;;;;;;;12.88;1.67;;;14.90;99.90;;;;;;5068344;28;20051;-71
2023/10/12 13:40:16;;;;;;;11.07;1.52;;;14.90;99.90;;;;;;5045027;28;20210;-70
2023/10/12 13:42:45;;;;;;;9.20;1.58;;;14.90;99.90;;;;;;5071690;28;20061;-71
2023/10/12 13:45:18;;;;;;;8.68;1.70;;;14.80;99.90;;;;;;5068272;28;20044;-71
2023/10/12 13:47:47;;;;;;;11.55;1.83;;;14.80;99.90;;;;;;5050529;28;20040;-71
2023/10/12 13:50:14;;;;;;;12.68;1.88;;;14.80;99.90;;;;;;5069203;28;20040;-70
2023/10/12 13:52:41;;;;;;;9.20;1.50;;;14.90;99.90;;;;;;5068757;28;20657;-71
2023/10/12 13:55:13;;;;;;;16.02;1.83;;;14.80;99.90;;;;;;5102050;28;20048;-70
2023/10/12 13:57:57;;;;;;;14.35;1.85;;;14.80;99.90;;;;;;5074680;28;20101;-70
2023/10/12 14:00:26;;;;;;;8.93;1.35;;;14.80;99.90;;;;;;5066865;28;20056;-70
2023/10/12 14:02:57;;;;;;;15.38;4.03;;;14.80;99.90;;;;;;5069814;28;20083;-72
2023/10/12 14:05:27;;;;;;;14.05;4.85;;;14.80;99.90;;;;;;5067065;28;20054;-72
2023/10/12 14:07:59;;;;;;;18.25;6.65;;;14.80;99.90;;;;;;5063629;28;20059;-71
2023/10/12 14:10:32;;;;;;;14.70;4.82;;;14.80;99.90;;;;;;5093079;27;20451;-72
2023/10/12 14:12:59;;;;;;;14.95;4.80;;;14.80;99.90;;;;;;5049941;28;21052;-69
2023/10/12 14:15:27;;;;;;;13.65;2.75;;;14.70;99.90;;;;;;5058257;28;20765;-71
2023/10/12 14:17:56;;;;;;;12.88;2.53;;;14.70;99.90;;;;;;5067312;28;20076;-71
2023/10/12 14:20:28;;;;;;;12.40;1.77;;;14.70;99.90;;;;;;5058541;28;20047;-71
2023/10/12 14:22:58;;;;;;;18.50;2.17;;;14.80;99.90;;;;;;5062400;28;20685;-70
2023/10/12 14:25:28;;;;;;;9.32;1.38;;;14.70;99.90;;;;;;5065476;28;20048;-70
2023/10/12 14:28:00;;;;;;;10.45;1.50;;;14.70;99.90;;;;;;5069922;28;20048;-70
2023/10/12 14:30:29;;;;;;;11.25;2.28;;;14.70;99.90;;;;;;5071808;28;20542;-70
2023/10/12 14:32:56;;;;;;;13.00;1.70;;;14.70;99.90;;;;;;5091462;27;20051;-70
2023/10/12 14:35:25;;;;;;;10.35;1.60;;;14.60;99.90;;;;;;5068917;28;20063;-69
2023/10/12 14:37:55;;;;;;;8.68;1.60;;;14.60;99.90;;;;;;5073022;28;20044;-69
2023/10/12 14:40:33;;;;;;;9.20;1.85;;;14.60;99.90;;;;;;5070459;28;20518;-69
2023/10/12 14:43:06;;;;;;;9.15;1.60;;;14.50;99.90;;;;;;5075518;28;20965;-70
2023/10/12 14:45:36;;;;;;;7.90;1.40;;;14.50;99.90;;;;;;5067475;28;20445;-70
2023/10/12 14:48:11;;;;;;;8.40;1.58;;;14.50;99.90;;;;;;5066887;28;20040;-71
2023/10/12 14:50:49;;;;;;;9.55;1.60;;;14.40;99.90;;;;;;5102463;27;20054;-70
2023/10/12 14:53:16;;;;;;;6.85;1.55;;;14.40;99.90;;;;;;5063538;28;20774;-70
2023/10/12 14:55:49;;;;;;;8.77;1.83;;;14.40;99.90;;;;;;5074970;27;20165;-69
2023/10/12 14:58:16;;;;;;;11.45;1.85;;;14.30;99.90;;;;;;5066266;28;20110;-70
2023/10/12 15:00:45;;;;;;;9.88;2.17;;;14.30;99.90;;;;;;5065077;28;20484;-69
2023/10/12 15:03:15;;;;;;;8.43;1.75;;;14.30;99.90;;;;;;5069535;28;20489;-70
2023/10/12 15:05:44;;;;;;;13.25;2.13;;;14.40;99.90;;;;;;5051047;28;20081;-70
2023/10/12 15:08:11;;;;;;;11.20;1.85;;;14.30;99.90;;;;;;5054970;28;20055;-69
2023/10/12 15:10:43;;;;;;;8.48;1.80;;;14.30;99.90;;;;;;5062923;28;20062;-66
2023/10/12 15:13:12;;;;;;;8.07;1.73;;;14.30;99.90;;;;;;5060976;28;20047;-67
2023/10/12 15:15:47;;;;;;;9.68;1.90;;;14.30;99.90;;;;;;5065622;28;20058;-65
2023/10/12 15:18:23;;;;;;;7.80;1.63;;;14.30;99.90;;;;;;5067313;28;20449;-66
2023/10/12 15:20:50;;;;;;;6.88;1.30;;;14.30;99.90;;;;;;5072979;28;20067;-66
2023/10/12 15:23:16;;;;;;;9.70;2.00;;;14.30;99.90;;;;;;5071526;28;20044;-67
2023/10/12 15:25:43;;;;;;;8.52;1.50;;;14.20;99.90;;;;;;5097752;27;20036;-67